Nearby METAR Reports

Actuele Vliegveldwaarnemingen NL (METAR).Zie KNMI uitleg METAR hier

EHAM - Amsterdam/Schiph, Netherlands
Distance from station: ONO 18km
Updated: 04/03/2024 21:55
Helder
Helder
 Wind van O
Wind: O 9 km/h
Temperatuur: 5°C
Wind Chill: 3°C
Dauwpunt: 3°C
Vochtigheid: 87%
Barometer: 1012 hPa
Overzicht: Helder
Visibility: greater than 10 km
2024/03/04 20:55 EHAM 042055Z 08005KT CAVOK 05/03 Q1012 NOSIG
EHKD - DE KOOY/DE KOOY
Updated: 04/03/2024 21:55
Zwaar bewolkt
Zwaar bewolkt
 Wind van O
Wind: O 7 km/h
Temperatuur: 6°C
Wind Chill: 4°C
Dauwpunt: 5°C
Vochtigheid: 93%
Barometer: 1012 hPa
Clouds: Zwaar bewolkt
Visibility: 10 km
Cloud details: Zwaar bewolkt 9144 m
2024/03/04 20:55 EHKD 042055Z AUTO 08004KT 9999 OVC300 06/05 Q1012 BLU
 
EHLW - LEEUWARDEN/LEEUWARDEN
Updated: 04/03/2024 21:59
Mist, Zwaar bewolkt
Mist, Zwaar bewolkt
 Wind van NNO
Wind: NNO 7 km/h
Temperatuur: 7°C
Wind Chill: 6°C
Dauwpunt: 6°C
Vochtigheid: 93%
Barometer: 1013 hPa
Overzicht: Mist
Clouds: Zwaar bewolkt
Visibility: 9 km
Cloud details: Meestal bewolkt 122 m
Meestal bewolkt 152 m
Zwaar bewolkt 1585 m
2024/03/04 20:59 EHLW 042059Z AUTO 03004KT 350V080 9000 BR BKN004 BKN005 OVC052 07/06 Q1013 YLO
EHVK - VOLKEL/VOLKEL
Updated: 04/03/2024 21:55
Helder
Helder
 Wind van NO
Wind: NO 6 km/h
Temperatuur: 6°C
Dauwpunt: 5°C
Vochtigheid: 93%
Barometer: 1012 hPa
Clouds: Helder
Visibility: 10 km
2024/03/04 20:55 EHVK 042055Z AUTO 05003KT 9999 NCD 06/05 Q1012 BLU
 
EHFS - VLISSINGEN
Updated: 04/03/2024 21:55
Gedeeltelijk bewolkt
Gedeeltelijk bewolkt
 Wind van O
Wind: O 17 km/h
Temperatuur: 8°C
Wind Chill: 5°C
Dauwpunt: 4°C
Vochtigheid: 76%
Barometer: 1011 hPa
Clouds: Gedeeltelijk bewolkt
Visibility: 10 km
2024/03/04 20:55 EHFS 042055Z AUTO 09009KT 9999 NSC 08/04 Q1011
EHEH - EINDHOVEN/EINDHOVEN
Updated: 04/03/2024 21:55
Few Clouds
Few Clouds
 Wind van varies
Wind: varies 2 km/h
Temperatuur: 5°C
Dauwpunt: 3°C
Vochtigheid: 87%
Barometer: 1012 hPa
Clouds: Few Clouds
Visibility: 10 km
Cloud details: Few Clouds 10363 m
2024/03/04 20:55 EHEH 042055Z AUTO VRB01KT 9999 FEW340 05/03 Q1012 BLU NOSIG
 
EHGR - GILZE-RIJEN/GILZE-RIJEN
Updated: 04/03/2024 21:55
Zwaar bewolkt
Zwaar bewolkt
 Wind van O
Wind: O 6 km/h, Windvlaag: 26 km/h
Temperatuur: 4°C
Dauwpunt: 1°C
Vochtigheid: 81%
Barometer: 1012 hPa
Clouds: Zwaar bewolkt
Visibility: 10 km
Cloud details: Zwaar bewolkt 10363 m
2024/03/04 20:55 EHGR 042055Z AUTO 09003G14KT 070V140 9999 OVC340 04/01 Q1012 BLU NOSIG
EHDL - ARNHEM/DEELEN
Updated: 04/03/2024 21:55
Zwaar bewolkt
Zwaar bewolkt
 Wind van varies
Wind: varies 4 km/h
Temperatuur: 3°C
Dauwpunt: 2°C
Vochtigheid: 93%
Barometer: 1012 hPa
Clouds: Zwaar bewolkt
Visibility: 10 km
Cloud details: Zwaar bewolkt 10363 m
2024/03/04 20:55 EHDL 042055Z AUTO VRB02KT 9999 OVC340 03/02 Q1012 BLU
 
EHBK - MAASTRICHT/MAASTRICHT-AACHEN
Updated: 04/03/2024 21:55
Gedeeltelijk bewolkt
Gedeeltelijk bewolkt
 Wind van O
Wind: O 6 km/h
Temperatuur: 8°C
Dauwpunt: 4°C
Vochtigheid: 76%
Barometer: 1012 hPa
Clouds: Gedeeltelijk bewolkt
Visibility: 10 km
2024/03/04 20:55 EHBK 042055Z AUTO 10003KT 9999 NSC 08/04 Q1012 NOSIG